Weather History for Pampa / Mesa Vista, TX

Change the Weather History Date:

Friday, May 17, 2013

  Actual Average (KBGD) Record (KBGD)
Temperature  
Mean Temperature 76 °F 68 °F  
Max Temperature 91 °F 81 °F 99 °F (1996)
Min Temperature 60 °F 56 °F 42 °F (1990)
Degree Days  
Heating Degree Days 0 2  
Month to date heating degree days 49  
Since 1 July heating degree days 3752  
Cooling Degree Days 10 5  
Month to date cooling degree days 62  
Year to date cooling degree days 106  
Growing Degree Days 26 (Base 50)    
Moisture  
Dew Point 59 °F    
Average Humidity 65    
Maximum Humidity 94    
Minimum Humidity 29    
Precipitation  
Precipitation 0.00 in 0.09 in 1.28 in (1989)
Month to date precipitation 1.20  
Year to date precipitation 5.36  
Snow  
Snow 0.00 in - T in (1949)
Month to date snowfall  
Since 1 July snowfall  
Snow Depth -    
Sea Level Pressure  
Sea Level Pressure 29.84 in    
Wind  
Wind Speed 10 mph (SE)    
Max Wind Speed 23 mph    
Max Gust Speed 32 mph    
Visibility 10 miles    
Events      
T = Trace of Precipitation, MM = Missing Value Source: NWS Daily Summary

Daily Weather History Graph

Daily Weather History Graph

Search for Another Location

Airport:

Trip Planner

Search our weather history database for the weather conditions in past years. The results will help you decide how hot, cold, wet, or windy it might be!

Date:

Astronomy

May. 17, 2013 Rise Set
Actual Time 6:36 AM CDT 8:44 PM CDT
Civil Twilight 6:08 AM CDT 9:13 PM CDT
Nautical Twilight 5:33 AM CDT 9:48 PM CDT
Astronomical Twilight 4:55 AM CDT 10:26 PM CDT
Moon 1:05 PM CDT (5/17) 1:43 AM CDT (5/17)
Length of Visible Light 15h 05m
Length of Day
14h 07m
Waxing Crescent, 45% of the Moon is Illuminated
May 17
Waxing Crescent
May 17
First Quarter
May 24
Full
May 31
Last Quarter
Jun 8
New

Hourly Weather History & Observations

Time (CDT) Temp. Heat Index Dew Point Humidity Pressure Visibility Wind Dir Wind Speed Gust Speed Precip Events Conditions
12:15 AM 68.0 °F - 57.2 °F 68% 29.82 in 10.0 mi East 6.9 mph - N/A   Clear
12:35 AM 66.2 °F - 59.0 °F 78% 29.82 in 10.0 mi ESE 9.2 mph - N/A   Clear
12:55 AM 64.4 °F - 59.0 °F 83% 29.82 in 10.0 mi SE 11.5 mph - N/A   Clear
1:15 AM 64.4 °F - 59.0 °F 83% 29.84 in 10.0 mi ESE 12.7 mph - N/A   Clear
1:35 AM 62.6 °F - 59.0 °F 88% 29.84 in 10.0 mi East 8.1 mph - N/A   Clear
1:55 AM 62.6 °F - 59.0 °F 88% 29.84 in 10.0 mi East 10.4 mph 18.4 mph N/A   Clear
2:15 AM 60.8 °F - 59.0 °F 94% 29.84 in 10.0 mi ESE 12.7 mph - N/A   Scattered Clouds
2:35 AM 62.6 °F - 59.0 °F 88% 29.86 in 10.0 mi East 13.8 mph 19.6 mph N/A   Mostly Cloudy
2:55 AM 62.6 °F - 59.0 °F 88% 29.87 in 10.0 mi East 13.8 mph 19.6 mph N/A   Overcast
3:15 AM 60.8 °F - 57.2 °F 88% 29.87 in 10.0 mi East 13.8 mph - N/A   Overcast
3:35 AM 60.8 °F - 57.2 °F 88% 29.87 in 10.0 mi East 12.7 mph - N/A   Overcast
3:55 AM 60.8 °F - 57.2 °F 88% 29.87 in 10.0 mi East 12.7 mph - N/A   Overcast
4:15 AM 60.8 °F - 55.4 °F 82% 29.87 in 10.0 mi East 12.7 mph - N/A   Overcast
4:35 AM 60.8 °F - 55.4 °F 82% 29.86 in 10.0 mi East 8.1 mph - N/A   Overcast
4:55 AM 60.8 °F - 57.2 °F 88% 29.85 in 10.0 mi ESE 9.2 mph - N/A   Overcast
5:15 AM 62.6 °F - 57.2 °F 82% 29.85 in 10.0 mi ESE 8.1 mph - N/A   Overcast
5:35 AM 62.6 °F - 57.2 °F 82% 29.85 in 10.0 mi ESE 6.9 mph - N/A   Overcast
5:55 AM 62.6 °F - 57.2 °F 82% 29.85 in 10.0 mi South 4.6 mph - N/A   Overcast
6:15 AM 62.6 °F - 59.0 °F 88% 29.85 in 10.0 mi ESE 6.9 mph - N/A   Overcast
6:35 AM 62.6 °F - 59.0 °F 88% 29.85 in 10.0 mi SE 6.9 mph - N/A   Overcast
6:55 AM 62.6 °F - 59.0 °F 88% 29.85 in 7.0 mi SE 5.8 mph - N/A   Overcast
7:15 AM 62.6 °F - 60.8 °F 94% 29.86 in 7.0 mi SE 4.6 mph - N/A   Overcast
7:35 AM 62.6 °F - 60.8 °F 94% 29.87 in 7.0 mi SSE 4.6 mph - N/A   Overcast
7:55 AM 62.6 °F - 60.8 °F 94% 29.88 in 7.0 mi SSE 4.6 mph - N/A   Overcast
8:15 AM 64.4 °F - 60.8 °F 88% 29.88 in 7.0 mi SSE 8.1 mph - N/A   Overcast
8:35 AM 64.4 °F - 60.8 °F 88% 29.88 in 10.0 mi SSE 8.1 mph - N/A   Overcast
8:55 AM 66.2 °F - 60.8 °F 83% 29.88 in 10.0 mi SSE 9.2 mph - N/A   Overcast
9:15 AM 68.0 °F - 60.8 °F 78% 29.89 in 10.0 mi SSE 6.9 mph - N/A   Overcast
9:35 AM 68.0 °F - 60.8 °F 78% 29.88 in 10.0 mi SSE 8.1 mph - N/A   Overcast
9:55 AM 69.8 °F - 60.8 °F 73% 29.89 in 10.0 mi South 9.2 mph - N/A   Overcast
10:15 AM 69.8 °F - 60.8 °F 73% 29.89 in 10.0 mi SSW 6.9 mph - N/A   Mostly Cloudy
10:35 AM 71.6 °F - 59.0 °F 64% 29.88 in 10.0 mi SSW 5.8 mph - N/A   Mostly Cloudy
10:55 AM 71.6 °F - 59.0 °F 64% 29.88 in 10.0 mi ESE 6.9 mph - N/A   Scattered Clouds
11:15 AM 73.4 °F - 59.0 °F 61% 29.88 in 10.0 mi South 6.9 mph - N/A   Clear
11:35 AM 73.4 °F - 59.0 °F 61% 29.89 in 10.0 mi NE 4.6 mph - N/A   Clear
11:55 AM 77.0 °F - 59.0 °F 54% 29.89 in 10.0 mi ESE 3.5 mph - N/A   Clear
12:15 PM 78.8 °F - 59.0 °F 51% 29.88 in 10.0 mi South 4.6 mph - N/A   Clear
12:35 PM 78.8 °F - 59.0 °F 51% 29.88 in 10.0 mi SE 5.8 mph - N/A   Clear
12:55 PM 80.6 °F 81.1 °F 59.0 °F 48% 29.87 in 10.0 mi SSE 6.9 mph - N/A   Clear
1:15 PM 80.6 °F 81.1 °F 59.0 °F 48% 29.87 in 10.0 mi SSE 3.5 mph - N/A   Clear
1:35 PM 82.4 °F 82.5 °F 59.0 °F 45% 29.87 in 10.0 mi SE 10.4 mph - N/A   Clear
2:15 PM 86.0 °F 84.5 °F 55.4 °F 35% 29.85 in 10.0 mi East 6.9 mph - N/A   Clear
2:35 PM 86.0 °F 84.5 °F 55.4 °F 35% 29.85 in 10.0 mi East 4.6 mph - N/A   Clear
2:55 PM 87.8 °F 86.1 °F 55.4 °F 33% 29.84 in 10.0 mi SSE 5.8 mph 16.1 mph N/A   Clear
3:15 PM 87.8 °F 86.5 °F 57.2 °F 35% 29.83 in 10.0 mi ESE 11.5 mph - N/A   Clear
3:35 PM 89.6 °F 88.1 °F 57.2 °F 33% 29.83 in 10.0 mi SE 10.4 mph 17.3 mph N/A   Clear
3:55 PM 89.6 °F 88.1 °F 57.2 °F 33% 29.82 in 10.0 mi SE 12.7 mph 20.7 mph N/A   Clear
4:15 PM 89.6 °F 87.7 °F 55.4 °F 31% 29.81 in 10.0 mi SE 13.8 mph 18.4 mph N/A   Clear
4:35 PM 91.4 °F 89.4 °F 55.4 °F 29% 29.80 in 10.0 mi SE 12.7 mph 20.7 mph N/A   Clear
4:55 PM 91.4 °F 89.4 °F 55.4 °F 29% 29.79 in 10.0 mi SE 13.8 mph 19.6 mph N/A   Clear
5:15 PM 91.4 °F 89.4 °F 55.4 °F 29% 29.78 in 10.0 mi SE 16.1 mph 25.3 mph N/A   Clear
5:35 PM 89.6 °F 87.7 °F 55.4 °F 31% 29.77 in 10.0 mi SE 20.7 mph 27.6 mph N/A   Clear
5:55 PM 86.0 °F 84.9 °F 57.2 °F 37% 29.77 in 10.0 mi SSE 18.4 mph 24.2 mph N/A   Clear
6:15 PM 86.0 °F 84.9 °F 57.2 °F 37% 29.78 in 10.0 mi SE 19.6 mph 27.6 mph N/A   Clear
6:35 PM 87.8 °F 86.5 °F 57.2 °F 35% 29.77 in 10.0 mi SE 21.9 mph 27.6 mph N/A   Clear
6:55 PM 87.8 °F 87.1 °F 59.0 °F 38% 29.77 in 10.0 mi SE 21.9 mph 27.6 mph N/A   Clear
7:15 PM 87.8 °F 86.1 °F 55.4 °F 33% 29.76 in 10.0 mi SE 20.7 mph 29.9 mph N/A   Clear
7:35 PM 86.0 °F 85.4 °F 59.0 °F 40% 29.76 in 10.0 mi SE 23.0 mph 27.6 mph N/A   Clear
7:55 PM 84.2 °F 84.4 °F 60.8 °F 45% 29.77 in 10.0 mi SE 18.4 mph 32.2 mph N/A   Clear
8:15 PM 80.6 °F 81.8 °F 62.6 °F 54% 29.78 in 10.0 mi SE 18.4 mph 27.6 mph N/A   Clear
8:35 PM 78.8 °F - 60.8 °F 54% 29.79 in 10.0 mi ESE 18.4 mph 24.2 mph N/A   Clear
8:55 PM 78.8 °F - 60.8 °F 54% 29.79 in 10.0 mi ESE 16.1 mph 24.2 mph N/A   Clear
9:15 PM 77.0 °F - 60.8 °F 57% 29.81 in 10.0 mi East 6.9 mph - N/A   Clear
9:35 PM 73.4 °F - 60.8 °F 65% 29.82 in 10.0 mi East 6.9 mph - N/A   Clear
9:55 PM 73.4 °F - 60.8 °F 65% 29.82 in 10.0 mi East 8.1 mph - N/A   Clear
10:15 PM 73.4 °F - 62.6 °F 69% 29.83 in 10.0 mi East 6.9 mph - N/A   Clear
10:35 PM 71.6 °F - 62.6 °F 73% 29.84 in 10.0 mi ENE 3.5 mph - N/A   Clear
10:55 PM 73.4 °F - 62.6 °F 69% 29.84 in 10.0 mi East 8.1 mph 16.1 mph N/A   Clear
11:15 PM 73.4 °F - 64.4 °F 73% 29.85 in 10.0 mi East 9.2 mph - N/A   Scattered Clouds
11:35 PM 73.4 °F - 66.2 °F 78% 29.85 in 10.0 mi ESE 4.6 mph 17.3 mph N/A   Mostly Cloudy
11:55 PM 73.4 °F - 68.0 °F 83% 29.84 in 10.0 mi SE 5.8 mph - N/A   Overcast